Time;durP1;ratioP1;P1;durP2;ratioP2;P2;SDS_P1;SDS_P2;PMS_P1;PMS_P2;Temp;Humidity;BMP_temperature;BMP_pressure;BME280_temperature;BME280_humidity;BME280_pressure;Samples;Min_cycle;Max_cycle;Signal;HPM_P1;HPM_P2
2023/01/30 00:01:50;0.00;0.00;0.62;0.00;0.00;0.62;3.00;2.37;;;20.10;23.30;;;;;;2255469;61;20362;-67
2023/01/30 00:04:35;0.00;0.00;0.62;0.00;0.00;0.62;3.00;2.47;;;20.10;23.30;;;;;;2255350;61;20777;-66
2023/01/30 00:07:20;0.00;0.00;0.62;0.00;0.00;0.62;3.73;2.47;;;20.10;23.30;;;;;;2256010;61;20836;-64
2023/01/30 00:10:06;0.00;0.00;0.62;0.00;0.00;0.62;2.93;2.37;;;20.10;23.80;;;;;;2257384;61;20386;-64
2023/01/30 00:12:51;0.00;0.00;0.62;0.00;0.00;0.62;4.20;3.17;;;20.10;23.30;;;;;;2255759;61;20509;-66
2023/01/30 00:15:36;0.00;0.00;0.62;0.00;0.00;0.62;2.57;2.33;;;20.10;23.30;;;;;;2256435;61;20389;-64
2023/01/30 00:18:23;0.00;0.00;0.62;0.00;0.00;0.62;3.90;2.67;;;20.10;23.30;;;;;;2256418;61;20369;-65
2023/01/30 00:21:09;0.00;0.00;0.62;0.00;0.00;0.62;3.77;2.20;;;20.10;23.40;;;;;;2256261;61;20416;-72
2023/01/30 00:23:54;0.00;0.00;0.62;0.00;0.00;0.62;3.03;2.67;;;20.10;23.40;;;;;;2256456;61;20845;-65
2023/01/30 00:26:39;0.00;0.00;0.62;0.00;0.00;0.62;3.80;2.60;;;20.10;23.40;;;;;;2255726;61;20369;-67
2023/01/30 00:29:23;0.00;0.00;0.62;0.00;0.00;0.62;2.90;2.60;;;20.10;23.30;;;;;;2256552;61;20782;-66
2023/01/30 00:32:08;0.00;0.00;0.62;0.00;0.00;0.62;2.90;2.60;;;20.10;23.20;;;;;;2255870;61;20378;-66
2023/01/30 00:34:54;0.00;0.00;0.62;0.00;0.00;0.62;4.10;2.87;;;20.10;23.20;;;;;;2255532;61;20901;-67
2023/01/30 00:37:39;0.00;0.00;0.62;0.00;0.00;0.62;3.17;2.50;;;20.10;23.10;;;;;;2255930;61;20372;-67
2023/01/30 00:40:25;0.00;0.00;0.62;0.00;0.00;0.62;4.20;2.67;;;20.10;23.10;;;;;;2256573;61;20413;-68
2023/01/30 00:49:31;0.00;0.00;0.62;0.00;0.00;0.62;2.80;2.37;;;20.10;23.00;;;;;;2256417;61;20389;-68
2023/01/30 00:52:17;0.00;0.00;0.62;0.00;0.00;0.62;3.40;2.50;;;20.20;23.00;;;;;;2256813;61;20429;-66
2023/01/30 00:55:01;0.00;0.00;0.62;0.00;0.00;0.62;3.30;2.70;;;20.20;23.00;;;;;;2256420;61;20815;-66
2023/01/30 00:57:46;0.00;0.00;0.62;0.00;0.00;0.62;3.40;2.90;;;20.10;22.90;;;;;;2255987;61;20413;-66
2023/01/30 01:00:31;0.00;0.00;0.62;0.00;0.00;0.62;2.47;2.00;;;20.10;22.90;;;;;;2256002;61;20429;-68
2023/01/30 01:03:16;0.00;0.00;0.62;0.00;0.00;0.62;3.00;2.63;;;20.10;22.90;;;;;;2259143;61;20358;-67
2023/01/30 01:06:03;0.00;0.00;0.62;0.00;0.00;0.62;3.77;2.90;;;20.10;22.90;;;;;;2256900;61;21037;-66
2023/01/30 01:08:49;0.00;0.00;0.62;0.00;0.00;0.62;2.73;2.47;;;20.10;22.90;;;;;;2256600;61;20381;-68
2023/01/30 01:11:34;0.00;0.00;0.62;0.00;0.00;0.62;3.20;2.83;;;20.20;22.90;;;;;;2255831;61;20463;-66
2023/01/30 01:14:18;0.00;0.00;0.62;0.00;0.00;0.62;3.00;2.70;;;20.10;22.90;;;;;;2256738;61;20369;-66
2023/01/30 01:17:03;0.00;0.00;0.62;0.00;0.00;0.62;2.83;2.27;;;20.20;22.90;;;;;;2256287;61;20381;-67
2023/01/30 01:19:48;0.00;0.00;0.62;0.00;0.00;0.62;3.53;2.63;;;20.10;22.90;;;;;;2256520;61;20437;-65
2023/01/30 01:22:34;0.00;0.00;0.62;0.00;0.00;0.62;3.17;2.43;;;20.20;22.90;;;;;;2255850;61;20358;-67
2023/01/30 01:25:21;0.00;0.00;0.62;0.00;0.00;0.62;3.23;2.87;;;20.20;22.90;;;;;;2256485;61;20369;-67
2023/01/30 01:28:06;0.00;0.00;0.62;0.00;0.00;0.62;3.53;3.20;;;20.20;22.90;;;;;;2256151;61;20501;-66
2023/01/30 01:30:51;0.00;0.00;0.62;0.00;0.00;0.62;3.13;2.63;;;20.20;22.90;;;;;;2256679;61;20443;-67
2023/01/30 01:33:35;0.00;0.00;0.62;0.00;0.00;0.62;5.07;3.27;;;20.20;23.00;;;;;;2254980;61;20841;-66
2023/01/30 01:36:20;0.00;0.00;0.62;0.00;0.00;0.62;3.23;2.87;;;20.20;23.10;;;;;;2256190;61;20401;-68
2023/01/30 01:39:07;0.00;0.00;0.62;0.00;0.00;0.62;3.83;2.63;;;20.20;23.10;;;;;;2256652;61;20385;-65
2023/01/30 01:41:53;0.00;0.00;0.62;0.00;0.00;0.62;5.03;3.73;;;20.20;23.00;;;;;;2256111;61;20425;-61
2023/01/30 01:45:15;0.00;0.00;0.62;0.00;0.00;0.62;3.90;3.30;;;20.20;23.00;;;;;;2255748;61;20411;-60
2023/01/30 01:48:05;0.00;0.00;0.62;0.00;0.00;0.62;4.40;3.30;;;20.20;23.10;;;;;;2255841;61;20365;-61
2023/01/30 01:50:56;0.00;0.00;0.62;0.00;0.00;0.62;3.63;3.07;;;20.20;23.20;;;;;;2256983;61;20381;-61
2023/01/30 01:53:46;0.00;0.00;0.62;0.00;0.00;0.62;3.20;2.63;;;20.10;23.10;;;;;;2256452;61;20361;-62
2023/01/30 01:56:34;0.00;0.00;0.62;0.00;0.00;0.62;3.33;3.03;;;20.10;23.10;;;;;;2255468;61;20551;-62
2023/01/30 01:59:26;0.00;0.00;0.62;0.00;0.00;0.62;3.57;2.90;;;20.10;23.10;;;;;;2255876;61;20449;-64
2023/01/30 02:02:13;0.00;0.00;0.62;0.00;0.00;0.62;3.53;2.70;;;20.20;23.60;;;;;;2256090;61;20416;-63
2023/01/30 02:05:02;0.00;0.00;0.62;0.00;0.00;0.62;3.10;2.77;;;20.20;23.20;;;;;;2258402;61;20362;-62
2023/01/30 02:07:52;0.00;0.00;0.62;0.00;0.00;0.62;3.20;2.90;;;20.20;23.20;;;;;;2255704;61;20501;-65
2023/01/30 02:10:47;0.00;0.00;0.62;0.00;0.00;0.62;4.00;2.67;;;20.20;23.20;;;;;;2255646;61;20421;-61
2023/01/30 02:13:33;0.00;0.00;0.62;0.00;0.00;0.62;3.80;2.90;;;20.20;23.20;;;;;;2256846;61;20358;-63
2023/01/30 02:16:20;0.00;0.00;0.62;0.00;0.00;0.62;3.30;2.83;;;20.20;23.20;;;;;;2256113;61;20409;-67
2023/01/30 02:19:29;0.00;0.00;0.62;0.00;0.00;0.62;3.07;2.50;;;20.20;23.20;;;;;;2256020;61;20937;-62
2023/01/30 02:22:39;0.00;0.00;0.62;0.00;0.00;0.62;2.90;2.53;;;20.20;23.20;;;;;;2258315;61;20433;-63
2023/01/30 02:26:28;0.00;0.00;0.62;0.00;0.00;0.62;3.20;2.90;;;20.20;23.20;;;;;;2256100;61;20500;-61
2023/01/30 02:29:54;0.00;0.00;0.62;0.00;0.00;0.62;3.60;2.60;;;20.20;23.20;;;;;;2256195;61;20397;-60
2023/01/30 02:32:49;0.00;0.00;0.62;0.00;0.00;0.62;4.20;3.20;;;20.20;23.20;;;;;;2255823;61;20398;-59
2023/01/30 02:35:45;0.00;0.00;0.62;0.00;0.00;0.62;2.60;2.27;;;20.20;23.20;;;;;;2256349;61;21005;-63
2023/01/30 02:38:41;0.00;0.00;0.62;0.00;0.00;0.62;3.40;2.50;;;20.20;23.30;;;;;;2255683;61;20929;-63
2023/01/30 02:41:35;0.00;0.00;0.62;0.00;0.00;0.62;3.93;2.77;;;20.10;23.20;;;;;;2256119;61;20765;-62
2023/01/30 02:44:29;0.00;0.00;0.62;0.00;0.00;0.62;3.50;2.60;;;20.20;23.30;;;;;;2255618;61;20358;-62
2023/01/30 02:47:20;0.00;0.00;0.62;0.00;0.00;0.62;2.90;2.30;;;20.10;23.20;;;;;;2254956;61;20366;-62
2023/01/30 02:50:13;0.00;0.00;0.62;0.00;0.00;0.62;3.40;3.03;;;20.20;23.20;;;;;;2256259;61;20968;-62
2023/01/30 02:52:58;0.00;0.00;0.62;0.00;0.00;0.62;3.90;2.70;;;20.20;23.30;;;;;;2256313;61;20964;-62
2023/01/30 02:55:43;0.00;0.00;0.62;0.00;0.00;0.62;2.73;2.43;;;20.20;23.30;;;;;;2255228;61;20401;-62
2023/01/30 02:58:35;0.00;0.00;0.62;0.00;0.00;0.62;3.50;2.70;;;20.20;23.30;;;;;;2258326;61;20797;-58
2023/01/30 03:01:39;0.00;0.00;0.62;0.00;0.00;0.62;2.73;2.53;;;20.20;23.30;;;;;;2256377;61;20357;-61
2023/01/30 03:05:04;0.00;0.00;0.62;0.00;0.00;0.62;2.70;2.33;;;20.20;23.30;;;;;;2256439;61;20876;-61
2023/01/30 03:08:00;0.00;0.00;0.62;0.00;0.00;0.62;3.20;2.53;;;20.20;23.30;;;;;;2240010;61;20384;-60
2023/01/30 03:10:54;0.00;0.00;0.62;0.00;0.00;0.62;3.07;2.63;;;20.20;23.30;;;;;;2240070;61;20424;-60
2023/01/30 03:13:47;0.00;0.00;0.62;0.00;0.00;0.62;3.60;2.90;;;20.10;23.20;;;;;;2240095;61;20453;-62
2023/01/30 03:16:37;0.00;0.00;0.62;0.00;0.00;0.62;3.73;2.43;;;20.20;23.30;;;;;;2240351;61;20404;-62
2023/01/30 03:19:25;0.00;0.00;0.62;0.00;0.00;0.62;2.73;2.40;;;20.10;23.30;;;;;;2240904;61;20960;-60
2023/01/30 03:22:10;0.00;0.00;0.62;0.00;0.00;0.62;3.47;2.80;;;20.20;23.30;;;;;;2242916;61;20486;-58
2023/01/30 03:24:57;0.00;0.00;0.62;0.00;0.00;0.62;3.10;2.63;;;20.20;23.40;;;;;;2242479;61;20364;-59
2023/01/30 03:27:43;0.00;0.00;0.62;0.00;0.00;0.62;2.83;2.40;;;20.20;23.30;;;;;;2240486;61;20400;-62
2023/01/30 03:30:29;0.00;0.00;0.62;0.00;0.00;0.62;2.57;2.20;;;20.20;23.40;;;;;;2240765;61;20869;-62
2023/01/30 03:33:22;0.00;0.00;0.62;0.00;0.00;0.62;3.00;2.60;;;20.20;23.40;;;;;;2239942;61;20925;-58
2023/01/30 03:36:09;0.00;0.00;0.62;0.00;0.00;0.62;2.77;2.07;;;20.20;23.40;;;;;;2239846;61;20360;-62
2023/01/30 03:38:54;0.00;0.00;0.62;0.00;0.00;0.62;2.87;2.40;;;20.20;23.90;;;;;;2255717;61;20529;-58
2023/01/30 03:41:42;0.00;0.00;0.62;0.00;0.00;0.62;3.03;2.40;;;20.20;23.40;;;;;;2256170;61;20454;-65
2023/01/30 03:44:27;0.00;0.00;0.62;0.00;0.00;0.62;2.40;2.10;;;20.20;23.40;;;;;;2255551;61;20374;-61
2023/01/30 03:47:12;0.00;0.00;0.62;0.00;0.00;0.62;3.53;2.40;;;20.20;23.40;;;;;;2254915;61;20408;-65
2023/01/30 03:49:57;0.00;0.00;0.62;0.00;0.00;0.62;3.17;2.77;;;20.20;23.40;;;;;;2270099;61;20492;-62
2023/01/30 03:52:41;0.00;0.00;0.62;0.00;0.00;0.62;3.37;2.40;;;20.20;23.40;;;;;;2255945;61;20433;-62
2023/01/30 03:55:29;0.00;0.00;0.62;0.00;0.00;0.62;2.47;2.07;;;20.20;23.40;;;;;;2255318;61;20366;-62
2023/01/30 03:58:16;0.00;0.00;0.62;0.00;0.00;0.62;2.80;2.47;;;20.20;23.50;;;;;;2255007;61;20393;-61
2023/01/30 04:01:00;0.00;0.00;0.62;0.00;0.00;0.62;2.73;2.53;;;20.20;23.50;;;;;;2256059;61;20998;-61
2023/01/30 04:03:45;0.00;0.00;0.62;0.00;0.00;0.62;3.10;2.10;;;20.20;23.50;;;;;;2256083;61;20342;-60
2023/01/30 04:06:30;0.00;0.00;0.62;0.00;0.00;0.62;2.87;2.33;;;20.20;23.50;;;;;;2255174;61;20412;-61
2023/01/30 04:09:15;0.00;0.00;0.62;0.00;0.00;0.62;2.67;2.17;;;20.20;23.50;;;;;;2255269;61;20393;-62
2023/01/30 04:12:04;0.00;0.00;0.62;0.00;0.00;0.62;2.87;2.20;;;20.20;24.00;;;;;;2253362;61;20394;-60
2023/01/30 04:14:55;0.00;0.00;0.62;0.00;0.00;0.62;2.40;1.90;;;20.20;23.50;;;;;;2255938;61;20901;-62
2023/01/30 04:18:07;0.00;0.00;0.62;0.00;0.00;0.62;2.70;2.10;;;20.20;23.50;;;;;;2252188;61;20932;-63
2023/01/30 04:21:30;0.00;0.00;0.62;0.00;0.00;0.62;2.40;2.10;;;20.20;23.50;;;;;;2255888;61;20374;-61
2023/01/30 04:24:15;0.00;0.00;0.62;0.00;0.00;0.62;2.50;1.97;;;20.20;23.60;;;;;;2255043;61;20401;-61
2023/01/30 04:27:00;0.00;0.00;0.62;0.00;0.00;0.62;2.70;2.23;;;20.20;23.60;;;;;;2255400;61;20366;-62
2023/01/30 04:29:46;0.00;0.00;0.62;0.00;0.00;0.62;2.87;2.00;;;20.20;23.60;;;;;;2255904;61;20485;-63
2023/01/30 04:32:32;0.00;0.00;0.62;0.00;0.00;0.62;2.50;1.70;;;20.20;23.60;;;;;;2255032;61;20985;-62
2023/01/30 04:35:17;0.00;0.00;0.62;0.00;0.00;0.62;2.30;1.90;;;20.20;23.60;;;;;;2255458;61;20936;-63
2023/01/30 04:38:02;0.00;0.00;0.62;0.00;0.00;0.62;2.53;2.30;;;20.20;23.60;;;;;;2255482;61;20449;-60
2023/01/30 04:40:48;0.00;0.00;0.62;0.00;0.00;0.62;2.60;2.10;;;20.20;23.60;;;;;;2255834;61;20381;-62
2023/01/30 04:43:33;0.00;0.00;0.62;0.00;0.00;0.62;2.23;1.77;;;20.20;23.60;;;;;;2255273;61;20362;-62
2023/01/30 04:46:27;0.00;0.00;0.62;0.00;0.00;0.62;2.10;1.70;;;20.20;23.60;;;;;;2254969;61;20361;-64
2023/01/30 04:49:13;0.00;0.00;0.62;0.00;0.00;0.62;2.20;1.80;;;20.20;23.60;;;;;;2255637;61;20440;-60
2023/01/30 04:51:58;0.00;0.00;0.62;0.00;0.00;0.62;2.17;1.80;;;20.20;23.60;;;;;;2258654;61;20389;-59
2023/01/30 04:54:43;0.00;0.00;0.62;0.00;0.00;0.62;1.87;1.60;;;20.20;23.60;;;;;;2257903;61;20381;-62
2023/01/30 04:57:28;0.00;0.00;0.62;0.00;0.00;0.62;2.63;2.00;;;20.20;23.60;;;;;;2258079;61;20814;-61
2023/01/30 05:00:13;0.00;0.00;0.62;0.00;0.00;0.62;2.07;1.50;;;20.20;23.60;;;;;;2256041;61;20424;-62
2023/01/30 05:03:07;0.00;0.00;0.62;0.00;0.00;0.62;2.63;1.70;;;20.20;23.60;;;;;;2255994;61;20757;-62
2023/01/30 05:05:53;0.00;0.00;0.62;0.00;0.00;0.62;2.03;1.60;;;20.20;23.60;;;;;;2255717;61;20410;-63
2023/01/30 05:08:38;0.00;0.00;0.62;0.00;0.00;0.62;1.90;1.30;;;20.20;23.60;;;;;;2255393;61;20438;-62
2023/01/30 05:11:26;0.00;0.00;0.62;0.00;0.00;0.62;2.30;1.60;;;20.20;23.60;;;;;;2256208;61;20358;-62
2023/01/30 05:14:11;0.00;0.00;0.62;0.00;0.00;0.62;2.90;1.97;;;20.20;23.60;;;;;;2256171;61;20898;-61
2023/01/30 05:16:56;0.00;0.00;0.62;0.00;0.00;0.62;2.20;1.60;;;20.20;23.60;;;;;;2255081;61;20412;-62
2023/01/30 05:19:40;0.00;0.00;0.62;0.00;0.00;0.62;1.80;1.40;;;20.20;23.60;;;;;;2255706;61;20885;-62
2023/01/30 05:22:26;0.00;0.00;0.62;0.00;0.00;0.62;2.17;1.77;;;20.20;23.60;;;;;;2255901;61;20358;-62
2023/01/30 05:25:11;0.00;0.00;0.62;0.00;0.00;0.62;2.30;1.73;;;20.20;23.60;;;;;;2256222;61;20805;-62
2023/01/30 05:27:56;0.00;0.00;0.62;0.00;0.00;0.62;2.00;1.50;;;20.20;23.60;;;;;;2254804;61;20377;-61
2023/01/30 05:30:41;0.00;0.00;0.62;0.00;0.00;0.62;2.00;1.40;;;20.20;23.60;;;;;;2255524;61;20381;-62
2023/01/30 05:33:26;0.00;0.00;0.62;0.00;0.00;0.62;2.57;1.77;;;20.20;23.60;;;;;;2255851;61;20475;-62
2023/01/30 05:36:14;0.00;0.00;0.62;0.00;0.00;0.62;1.90;1.60;;;20.20;23.60;;;;;;2255774;61;20370;-63
2023/01/30 05:39:01;0.00;0.00;0.62;0.00;0.00;0.62;2.10;1.50;;;20.20;23.60;;;;;;2255450;61;20384;-62
2023/01/30 05:41:45;0.00;0.00;0.62;0.00;0.00;0.62;2.53;1.70;;;20.20;23.60;;;;;;2255679;61;20377;-61
2023/01/30 05:44:30;0.00;0.00;0.62;0.00;0.00;0.62;1.93;1.60;;;20.20;23.60;;;;;;2255867;61;20361;-60
2023/01/30 05:47:15;0.00;0.00;0.62;0.00;0.00;0.62;1.97;1.47;;;20.20;23.60;;;;;;2255744;61;20383;-62
2023/01/30 05:50:00;0.00;0.00;0.62;0.00;0.00;0.62;2.10;1.40;;;20.20;23.60;;;;;;2262789;61;20930;-58
2023/01/30 05:52:44;0.00;0.00;0.62;0.00;0.00;0.62;1.70;1.23;;;20.20;23.60;;;;;;2255145;61;20927;-62
2023/01/30 05:55:30;0.00;0.00;0.62;0.00;0.00;0.62;1.60;1.20;;;20.20;23.60;;;;;;2256296;61;20357;-63
2023/01/30 05:58:15;0.00;0.00;0.62;0.00;0.00;0.62;1.97;1.50;;;20.20;23.60;;;;;;2255574;61;20878;-61
2023/01/30 06:01:01;0.00;0.00;0.62;0.00;0.00;0.62;1.70;1.20;;;20.20;23.60;;;;;;2255478;61;20397;-62
2023/01/30 06:03:46;0.00;0.00;0.62;0.00;0.00;0.62;2.03;1.40;;;20.30;23.70;;;;;;2255094;61;20370;-61
2023/01/30 06:06:31;0.00;0.00;0.62;0.00;0.00;0.62;2.10;1.57;;;20.30;23.70;;;;;;2255382;61;20428;-61
2023/01/30 06:09:16;0.00;0.00;0.62;0.00;0.00;0.62;1.83;1.20;;;20.30;23.70;;;;;;2255993;61;20433;-57
2023/01/30 06:12:03;0.00;0.00;0.62;0.00;0.00;0.62;1.70;1.30;;;20.30;23.70;;;;;;2255213;61;20960;-59
2023/01/30 06:14:48;0.00;0.00;0.62;0.00;0.00;0.62;1.50;1.10;;;20.30;23.70;;;;;;2255452;61;20828;-58
2023/01/30 06:17:32;0.00;0.00;0.62;0.00;0.00;0.62;1.90;1.40;;;20.30;23.70;;;;;;2255981;61;20420;-59
2023/01/30 06:20:17;0.00;0.00;0.62;0.00;0.00;0.62;1.60;1.20;;;20.20;23.60;;;;;;2255721;61;20459;-61
2023/01/30 06:23:02;0.00;0.00;0.62;0.00;0.00;0.62;2.00;1.53;;;20.30;23.70;;;;;;2255449;61;20362;-56
2023/01/30 06:25:50;0.00;0.00;0.62;0.00;0.00;0.62;1.60;1.10;;;20.30;23.70;;;;;;2256410;61;20417;-60
2023/01/30 06:28:36;0.00;0.00;0.62;0.00;0.00;0.62;1.90;1.20;;;20.30;23.70;;;;;;2256729;61;20361;-59
2023/01/30 06:31:21;0.00;0.00;0.62;0.00;0.00;0.62;1.70;1.20;;;20.30;23.70;;;;;;2256010;61;20374;-61
2023/01/30 06:34:05;0.00;0.00;0.62;0.00;0.00;0.62;1.80;1.40;;;20.30;23.70;;;;;;2256266;61;20970;-61
2023/01/30 06:36:50;0.00;0.00;0.62;0.00;0.00;0.62;1.87;1.20;;;20.30;23.70;;;;;;2256000;61;20540;-60
2023/01/30 06:39:35;0.00;0.00;0.62;0.00;0.00;0.62;1.73;1.40;;;20.30;23.70;;;;;;2256797;61;20413;-60
2023/01/30 06:42:19;0.00;0.00;0.62;0.00;0.00;0.62;2.57;1.40;;;20.30;23.70;;;;;;2256431;61;20444;-60
2023/01/30 06:45:07;0.00;0.00;0.62;0.00;0.00;0.62;1.60;1.10;;;20.30;23.70;;;;;;2255933;61;21335;-60
2023/01/30 06:47:54;0.00;0.00;0.62;0.00;0.00;0.62;2.00;1.30;;;20.30;23.70;;;;;;2255539;61;20432;-62
2023/01/30 06:50:39;0.00;0.00;0.62;0.00;0.00;0.62;2.50;1.33;;;20.30;23.70;;;;;;2256698;61;20915;-62
2023/01/30 06:53:29;0.00;0.00;0.62;0.00;0.00;0.62;1.80;1.07;;;20.30;23.70;;;;;;2258120;61;20417;-61
2023/01/30 06:56:14;0.00;0.00;0.62;0.00;0.00;0.62;1.73;1.17;;;20.30;23.70;;;;;;2256101;61;20366;-62
2023/01/30 06:58:58;0.00;0.00;0.62;0.00;0.00;0.62;1.80;1.00;;;20.30;23.70;;;;;;2258372;61;20961;-60
2023/01/30 07:01:44;0.00;0.00;0.62;0.00;0.00;0.62;1.80;1.20;;;20.30;23.80;;;;;;2256611;61;20489;-59
2023/01/30 07:04:29;0.00;0.00;0.62;0.00;0.00;0.62;1.67;1.00;;;20.30;23.80;;;;;;2256131;61;20373;-61
2023/01/30 07:07:13;0.00;0.00;0.62;0.00;0.00;0.62;1.70;1.00;;;20.30;23.80;;;;;;2255754;61;20366;-62
2023/01/30 07:09:59;0.00;0.00;0.62;0.00;0.00;0.62;2.00;1.10;;;20.30;23.80;;;;;;2256557;61;20386;-62
2023/01/30 07:12:45;0.00;0.00;0.62;0.00;0.00;0.62;1.53;1.00;;;20.30;23.70;;;;;;2256648;61;20486;-64
2023/01/30 07:15:31;0.00;0.00;0.62;0.00;0.00;0.62;1.70;1.10;;;20.30;23.80;;;;;;2256162;61;20424;-57
2023/01/30 07:18:17;0.00;0.00;0.62;0.00;0.00;0.62;2.60;1.60;;;20.30;23.80;;;;;;2255826;61;20358;-59
2023/01/30 07:21:01;0.00;0.00;0.62;0.00;0.00;0.62;1.60;1.00;;;20.30;23.80;;;;;;2255939;61;20377;-59
2023/01/30 07:23:46;0.00;0.00;0.62;0.00;0.00;0.62;1.63;0.90;;;20.30;23.80;;;;;;2256413;61;20985;-61
2023/01/30 07:26:31;0.00;0.00;0.62;0.00;0.00;0.62;1.50;0.97;;;20.30;23.80;;;;;;2255697;61;20886;-60
2023/01/30 07:29:16;0.00;0.00;0.62;0.00;0.00;0.62;1.50;1.00;;;20.30;23.80;;;;;;2256025;61;20474;-62
2023/01/30 07:32:01;0.00;0.00;0.62;0.00;0.00;0.62;1.40;0.80;;;20.30;23.80;;;;;;2256744;61;20393;-61
2023/01/30 07:34:47;0.00;0.00;0.62;0.00;0.00;0.62;1.50;0.90;;;20.30;23.80;;;;;;2256410;61;20362;-61
2023/01/30 07:37:32;0.00;0.00;0.62;0.00;0.00;0.62;1.53;1.00;;;20.30;23.80;;;;;;2255862;61;20902;-58
2023/01/30 07:40:20;0.00;0.00;0.62;0.00;0.00;0.62;1.93;1.30;;;20.30;23.80;;;;;;2256160;61;20922;-60
2023/01/30 07:43:09;0.00;0.00;0.62;0.00;0.00;0.62;1.80;1.00;;;20.30;23.80;;;;;;2254606;61;20756;-60
2023/01/30 07:45:54;0.00;0.00;0.62;0.00;0.00;0.62;1.57;0.93;;;20.30;23.80;;;;;;2255928;61;20370;-60
2023/01/30 07:48:39;0.00;0.00;0.62;0.00;0.00;0.62;1.77;1.10;;;20.30;23.80;;;;;;2255467;61;20454;-60
2023/01/30 07:51:25;0.00;0.00;0.62;0.00;0.00;0.62;2.07;1.17;;;20.30;23.80;;;;;;2255875;61;20425;-61
2023/01/30 07:54:10;0.00;0.00;0.62;0.00;0.00;0.62;1.43;0.87;;;20.30;23.80;;;;;;2256258;61;20432;-58
2023/01/30 07:56:55;0.00;0.00;0.62;0.00;0.00;0.62;1.53;0.90;;;20.30;23.80;;;;;;2256010;61;20392;-59
2023/01/30 07:59:39;0.00;0.00;0.62;0.00;0.00;0.62;2.07;1.10;;;20.40;23.90;;;;;;2256005;61;20520;-60
2023/01/30 08:02:24;0.00;0.00;0.62;0.00;0.00;0.62;1.60;0.80;;;20.40;23.90;;;;;;2255404;61;20408;-60
2023/01/30 08:05:09;0.00;0.00;0.62;0.00;0.00;0.62;1.50;0.90;;;20.40;23.90;;;;;;2256267;61;20369;-57
2023/01/30 08:07:56;0.00;0.00;0.62;0.00;0.00;0.62;2.23;0.97;;;20.40;23.90;;;;;;2256191;61;20389;-61
2023/01/30 08:10:41;0.00;0.00;0.62;0.00;0.00;0.62;3.40;1.33;;;20.40;23.90;;;;;;2255642;61;20381;-64
2023/01/30 08:13:26;0.00;0.00;0.62;0.00;0.00;0.62;2.90;1.70;;;20.30;23.60;;;;;;2255632;61;20839;-65
2023/01/30 08:16:11;0.00;0.00;0.62;0.00;0.00;0.62;4.80;2.00;;;20.20;22.80;;;;;;2256298;61;20417;-61
2023/01/30 08:18:55;0.00;0.00;0.62;0.00;0.00;0.62;7.97;2.00;;;20.10;22.50;;;;;;2255675;61;20482;-62
2023/01/30 08:21:40;0.00;0.00;0.62;0.00;0.00;0.62;3.70;2.47;;;20.00;22.50;;;;;;2255830;61;20361;-65
2023/01/30 08:24:26;0.00;0.00;0.62;0.00;0.00;0.62;8.13;2.83;;;19.80;22.70;;;;;;2255583;61;20405;-58
2023/01/30 08:27:11;0.00;0.00;0.62;0.00;0.00;0.62;7.50;2.03;;;19.70;22.80;;;;;;2255430;61;20419;-61
2023/01/30 08:29:56;0.00;0.00;0.62;0.00;0.00;0.62;8.00;2.97;;;19.50;22.90;;;;;;2256258;61;20424;-59
2023/01/30 08:32:41;0.00;0.00;0.62;0.00;0.00;0.62;10.33;2.30;;;19.40;22.90;;;;;;2255547;61;20389;-59
2023/01/30 08:35:26;0.00;0.00;0.62;0.00;0.00;0.62;7.53;2.60;;;19.30;23.00;;;;;;2255717;61;20393;-54
2023/01/30 08:38:11;0.00;0.00;0.62;0.00;0.00;0.62;6.00;2.27;;;19.20;23.10;;;;;;2256045;61;20705;-60
2023/01/30 08:40:59;0.00;0.00;0.62;0.00;0.00;0.62;11.03;2.33;;;19.10;23.10;;;;;;2255833;61;20417;-57
2023/01/30 08:43:44;0.00;0.00;0.62;0.00;0.00;0.62;5.13;2.10;;;19.10;23.20;;;;;;2255331;61;20389;-62
2023/01/30 08:46:28;0.00;0.00;0.62;0.00;0.00;0.62;5.27;2.37;;;19.00;23.20;;;;;;2254700;61;20361;-55
2023/01/30 08:49:14;0.00;0.00;0.62;0.00;0.00;0.62;6.30;2.40;;;18.90;23.30;;;;;;2256280;61;20792;-60
2023/01/30 08:51:58;0.00;0.00;0.62;0.00;0.00;0.62;7.90;2.60;;;18.80;23.30;;;;;;2256222;61;20362;-59
2023/01/30 08:54:43;0.00;0.00;0.62;0.00;0.00;0.62;5.07;2.30;;;18.80;23.40;;;;;;2255313;61;20437;-62
2023/01/30 08:57:31;0.00;0.00;0.62;0.00;0.00;0.62;7.93;2.87;;;18.70;23.50;;;;;;2254937;61;20417;-55
2023/01/30 09:00:17;0.00;0.00;0.62;0.00;0.00;0.62;5.93;1.97;;;18.60;23.50;;;;;;2256078;61;20397;-62
2023/01/30 09:03:02;0.00;0.00;0.62;0.00;0.00;0.62;6.70;2.30;;;18.60;23.60;;;;;;2265243;61;20366;-56
2023/01/30 09:05:53;0.00;0.00;0.62;0.00;0.00;0.62;6.17;2.50;;;18.50;23.70;;;;;;2256041;61;20524;-56
2023/01/30 09:08:38;0.00;0.00;0.62;0.00;0.00;0.62;4.67;2.20;;;18.50;23.80;;;;;;2255074;61;20408;-61
2023/01/30 09:11:22;0.00;0.00;0.62;0.00;0.00;0.62;7.97;2.70;;;18.50;23.90;;;;;;2256255;61;20890;-53
2023/01/30 09:14:09;0.00;0.00;0.62;0.00;0.00;0.62;5.63;2.43;;;18.40;23.90;;;;;;2255369;61;20386;-57
2023/01/30 09:16:56;0.00;0.00;0.62;0.00;0.00;0.62;8.80;2.73;;;18.40;23.90;;;;;;2255278;61;20912;-58
2023/01/30 09:19:41;0.00;0.00;0.62;0.00;0.00;0.62;9.13;3.30;;;18.40;23.80;;;;;;2255634;61;20481;-57
2023/01/30 09:22:26;0.00;0.00;0.62;0.00;0.00;0.62;4.90;2.53;;;18.40;23.80;;;;;;2255851;61;20882;-57
2023/01/30 09:25:11;0.00;0.00;0.62;0.00;0.00;0.62;6.30;2.63;;;18.40;23.80;;;;;;2255169;61;20922;-58
2023/01/30 09:27:55;0.00;0.00;0.62;0.00;0.00;0.62;6.60;2.67;;;18.30;23.90;;;;;;2255268;61;20450;-60
2023/01/30 09:30:41;0.00;0.00;0.62;0.00;0.00;0.62;8.97;2.83;;;18.40;24.00;;;;;;2255442;61;20436;-65
2023/01/30 09:33:27;0.00;0.00;0.62;0.00;0.00;0.62;6.83;2.87;;;18.30;24.00;;;;;;2255669;61;20385;-61
2023/01/30 09:36:12;0.00;0.00;0.62;0.00;0.00;0.62;5.07;2.90;;;18.30;24.00;;;;;;2255268;61;20361;-56
2023/01/30 09:38:56;0.00;0.00;0.62;0.00;0.00;0.62;7.30;2.70;;;18.30;24.00;;;;;;2255689;61;20521;-52
2023/01/30 09:42:04;0.00;0.00;0.62;0.00;0.00;0.62;5.90;2.37;;;18.30;24.00;;;;;;2255811;61;20894;-58
2023/01/30 09:45:09;0.00;0.00;0.62;0.00;0.00;0.62;7.97;3.50;;;18.30;24.00;;;;;;2255847;61;20362;-53
2023/01/30 09:48:05;0.00;0.00;0.62;0.00;0.00;0.62;10.93;3.70;;;18.30;24.10;;;;;;2255450;61;20901;-60
2023/01/30 09:51:24;0.00;0.00;0.62;0.00;0.00;0.62;6.50;2.90;;;18.30;24.00;;;;;;2255707;61;20472;-58
2023/01/30 09:54:21;0.00;0.00;0.62;0.00;0.00;0.62;6.90;3.00;;;18.30;24.20;;;;;;2255403;61;20386;-57
2023/01/30 09:57:16;0.00;0.00;0.62;0.00;0.00;0.62;5.33;2.57;;;18.30;23.90;;;;;;2255446;61;20393;-58
2023/01/30 10:00:10;0.00;0.00;0.62;0.00;0.00;0.62;7.80;3.07;;;18.30;24.00;;;;;;2256211;61;20786;-58
2023/01/30 10:03:09;0.00;0.00;0.62;0.00;0.00;0.62;6.30;2.90;;;18.20;23.80;;;;;;2256367;61;20914;-60
2023/01/30 10:05:58;0.00;0.00;0.62;0.00;0.00;0.62;6.47;3.07;;;18.20;23.80;;;;;;2256365;61;20365;-58
2023/01/30 10:08:51;0.00;0.00;0.62;0.00;0.00;0.62;6.93;2.60;;;18.20;23.90;;;;;;2256297;61;20393;-55
2023/01/30 10:11:51;0.00;0.00;0.62;0.00;0.00;0.62;8.80;2.80;;;18.20;24.00;;;;;;2256157;61;21009;-63
2023/01/30 10:15:00;0.00;0.00;0.62;0.00;0.00;0.62;8.93;2.77;;;18.20;24.00;;;;;;2256475;61;20937;-54
2023/01/30 10:18:21;0.00;0.00;0.62;0.00;0.00;0.62;7.03;2.70;;;18.20;24.10;;;;;;2256428;61;20365;-54
2023/01/30 10:21:23;0.00;0.00;0.62;0.00;0.00;0.62;6.50;2.50;;;18.20;24.10;;;;;;2247363;61;20395;-53
2023/01/30 10:24:32;0.00;0.00;0.62;0.00;0.00;0.62;7.10;2.73;;;18.20;24.10;;;;;;2246687;61;20371;-63
2023/01/30 10:27:19;0.00;0.00;0.62;0.00;0.00;0.62;6.20;2.70;;;18.20;24.10;;;;;;2246756;61;20940;-54
2023/01/30 10:30:12;0.00;0.00;0.62;0.00;0.00;0.62;7.70;2.87;;;18.10;24.00;;;;;;2244146;61;20387;-58
2023/01/30 10:33:02;0.00;0.00;0.62;0.00;0.00;0.62;7.47;2.40;;;18.20;24.00;;;;;;2256303;61;20425;-55
2023/01/30 10:35:56;0.00;0.00;0.62;0.00;0.00;0.62;8.20;2.40;;;18.20;24.00;;;;;;2256650;61;20424;-62
2023/01/30 10:38:48;0.00;0.00;0.62;0.00;0.00;0.62;9.83;2.93;;;18.20;24.10;;;;;;2256028;61;20446;-59
2023/01/30 10:41:37;0.00;0.00;0.62;0.00;0.00;0.62;11.07;2.73;;;18.20;24.10;;;;;;2256192;61;20416;-59
2023/01/30 10:44:23;0.00;0.00;0.62;0.00;0.00;0.62;6.47;2.70;;;18.20;24.10;;;;;;2256369;61;20429;-58
2023/01/30 10:47:33;0.00;0.00;0.62;0.00;0.00;0.62;7.70;2.13;;;18.20;24.20;;;;;;2256017;61;20896;-57
2023/01/30 10:50:23;0.00;0.00;0.62;0.00;0.00;0.62;6.20;2.30;;;18.20;24.30;;;;;;2256350;61;20866;-60
2023/01/30 10:53:16;0.00;0.00;0.62;0.00;0.00;0.62;7.17;2.27;;;18.30;24.40;;;;;;2255614;61;20393;-56
2023/01/30 10:56:11;0.00;0.00;0.62;0.00;0.00;0.62;4.63;1.73;;;18.40;24.50;;;;;;2255913;61;20769;-60
2023/01/30 10:59:05;0.00;0.00;0.62;0.00;0.00;0.62;3.07;1.87;;;18.50;24.60;;;;;;2256373;61;20516;-55
2023/01/30 11:02:01;0.00;0.00;0.62;0.00;0.00;0.62;3.70;1.40;;;18.60;24.70;;;;;;2256384;61;20402;-61
2023/01/30 11:04:55;0.00;0.00;0.62;0.00;0.00;0.62;3.07;1.90;;;18.60;24.60;;;;;;2256256;61;20776;-53
2023/01/30 11:07:42;0.00;0.00;0.62;0.00;0.00;0.62;5.50;1.73;;;18.70;24.60;;;;;;2255697;61;20753;-54
2023/01/30 11:10:27;0.00;0.00;0.62;0.00;0.00;0.62;3.20;1.30;;;18.80;24.60;;;;;;2255456;61;20796;-59
2023/01/30 11:13:17;0.00;0.00;0.62;0.00;0.00;0.62;4.40;1.70;;;18.90;24.60;;;;;;2256262;61;20929;-56